createdAt,value
2024-02-02T00:04:19.118Z,3.44
2024-02-02T00:09:23.006Z,3.46
2024-02-02T00:14:26.534Z,3.44
2024-02-02T00:19:30.116Z,3.46
2024-02-02T00:24:33.705Z,3.44
2024-02-02T00:29:37.682Z,3.44
2024-02-02T00:34:41.823Z,3.38
2024-02-02T00:39:46.070Z,3.31
2024-02-02T00:44:49.701Z,3.31
2024-02-02T00:49:53.131Z,3.26
2024-02-02T00:54:56.565Z,3.19
2024-02-02T01:00:00.173Z,3.12
2024-02-02T01:05:05.734Z,3.07
2024-02-02T01:10:13.594Z,3.06
2024-02-02T01:15:17.875Z,3.00
2024-02-02T01:20:21.732Z,2.98
2024-02-02T01:25:25.117Z,2.93
2024-02-02T01:30:31.096Z,2.91
2024-02-02T01:35:34.510Z,2.90
2024-02-02T01:40:37.968Z,2.88
2024-02-02T01:45:41.356Z,2.88
2024-02-02T01:50:44.665Z,2.94
2024-02-02T01:55:48.203Z,3.03
2024-02-02T02:00:51.905Z,3.08
2024-02-02T02:05:56.099Z,3.09
2024-02-02T02:11:00.210Z,3.04
2024-02-02T02:16:03.766Z,3.00
2024-02-02T02:21:27.880Z,3.04
2024-02-02T02:26:31.834Z,2.99
2024-02-02T02:31:35.439Z,2.97
2024-02-02T02:36:38.857Z,3.00
2024-02-02T02:41:42.473Z,2.95
2024-02-02T02:46:45.967Z,2.91
2024-02-02T02:51:50.405Z,2.80
2024-02-02T02:56:53.799Z,2.72
2024-02-02T03:01:58.066Z,2.61
2024-02-02T03:07:02.917Z,2.36
2024-02-02T03:12:06.713Z,2.23
2024-02-02T03:17:10.209Z,2.20
2024-02-02T03:22:14.038Z,2.28
2024-02-02T03:27:17.444Z,2.33
2024-02-02T03:32:21.042Z,2.40
2024-02-02T03:37:24.453Z,2.51
2024-02-02T03:42:28.174Z,2.52
2024-02-02T03:47:31.610Z,2.62
2024-02-02T03:52:35.548Z,2.69
2024-02-02T03:57:38.924Z,2.72
2024-02-02T04:02:46.615Z,2.64
2024-02-02T04:07:50.159Z,2.59
2024-02-02T04:12:54.082Z,2.61
2024-02-02T04:17:57.627Z,2.60
2024-02-02T04:23:01.075Z,2.60
2024-02-02T04:28:06.495Z,2.54
2024-02-02T04:33:10.093Z,2.44
2024-02-02T04:38:13.720Z,2.33
2024-02-02T04:43:17.312Z,2.27
2024-02-02T04:48:20.856Z,2.17
2024-02-02T04:53:24.323Z,2.13
2024-02-02T04:58:27.809Z,2.07
2024-02-02T05:03:33.204Z,2.03
2024-02-02T05:08:36.797Z,1.99
2024-02-02T05:13:40.325Z,2.00
2024-02-02T05:18:44.297Z,1.99
2024-02-02T05:23:49.811Z,1.93
2024-02-02T05:28:54.838Z,1.85
2024-02-02T05:33:58.360Z,1.71
2024-02-02T05:39:01.900Z,1.58
2024-02-02T05:44:05.352Z,1.49
2024-02-02T05:49:08.898Z,1.36
2024-02-02T05:54:12.517Z,1.30
2024-02-02T05:59:15.962Z,1.26
2024-02-02T06:04:19.605Z,1.22
2024-02-02T06:09:23.113Z,1.17
2024-02-02T06:14:28.891Z,1.16
2024-02-02T06:19:32.552Z,1.20
2024-02-02T06:24:36.144Z,1.26
2024-02-02T06:29:39.640Z,1.30
2024-02-02T06:34:43.070Z,1.37
2024-02-02T06:39:48.936Z,1.41
2024-02-02T06:44:52.975Z,1.43
2024-02-02T06:49:56.417Z,1.47
2024-02-02T06:55:00.354Z,1.52
2024-02-02T07:00:05.136Z,1.67
2024-02-02T07:05:09.059Z,1.82
2024-02-02T07:10:17.101Z,2.04
2024-02-02T07:15:27.131Z,2.30
2024-02-02T07:20:31.033Z,3.07
2024-02-02T07:25:41.757Z,3.67
2024-02-02T07:30:45.313Z,4.06
2024-02-02T07:35:48.908Z,4.46
2024-02-02T07:41:24.418Z,4.65
2024-02-02T07:46:28.399Z,4.40
2024-02-02T07:51:31.865Z,4.48
2024-02-02T07:56:35.254Z,4.74
2024-02-02T08:01:38.711Z,4.92
2024-02-02T08:06:43.414Z,4.84
2024-02-02T08:11:46.940Z,4.95
2024-02-02T08:16:50.626Z,5.64
2024-02-02T08:21:57.077Z,5.43
2024-02-02T08:27:00.562Z,4.98
2024-02-02T08:32:06.387Z,4.66
2024-02-02T08:37:09.888Z,4.39
2024-02-02T08:42:22.921Z,4.22
2024-02-02T08:47:30.346Z,4.19
2024-02-02T08:52:37.010Z,4.25
2024-02-02T08:58:28.947Z,4.30
2024-02-02T09:03:45.980Z,4.40
2024-02-02T09:08:51.249Z,4.44
2024-02-02T09:14:09.948Z,4.43
2024-02-02T09:19:29.123Z,4.49
2024-02-02T09:24:50.325Z,4.56
2024-02-02T09:29:54.748Z,4.59
2024-02-02T09:35:02.505Z,4.64
2024-02-02T09:40:37.020Z,4.77
2024-02-02T09:45:58.871Z,4.88
2024-02-02T09:51:34.499Z,4.96
2024-02-02T09:57:01.051Z,5.02
2024-02-02T10:02:44.963Z,5.06
2024-02-02T10:08:37.009Z,5.21
2024-02-02T10:14:01.983Z,5.34
2024-02-02T10:19:58.016Z,5.46
2024-02-02T10:25:52.681Z,5.58
2024-02-02T10:31:24.035Z,5.78
2024-02-02T10:36:56.432Z,6.05
2024-02-02T10:42:44.111Z,6.35
2024-02-02T10:48:16.645Z,6.74
2024-02-02T10:54:13.228Z,6.96
2024-02-02T10:59:33.973Z,7.39
2024-02-02T11:04:53.258Z,7.84
2024-02-02T11:10:06.670Z,8.19
2024-02-02T11:15:40.504Z,8.53
2024-02-02T11:21:34.675Z,8.44
2024-02-02T11:27:04.381Z,8.34
2024-02-02T11:32:52.060Z,8.56
2024-02-02T11:38:41.015Z,8.79
2024-02-02T11:43:46.580Z,8.65
2024-02-02T11:49:07.066Z,8.27
2024-02-02T11:54:28.002Z,7.85
2024-02-02T11:59:39.851Z,7.47
2024-02-02T12:05:10.184Z,7.30
2024-02-02T12:10:20.078Z,7.17
2024-02-02T12:15:24.272Z,7.04
2024-02-02T12:20:30.626Z,6.95
2024-02-02T12:25:34.846Z,6.88
2024-02-02T12:30:38.578Z,6.86
2024-02-02T12:35:42.827Z,6.92
2024-02-02T12:40:46.377Z,6.91
2024-02-02T12:45:49.850Z,6.93
2024-02-02T12:50:53.692Z,6.93
2024-02-02T12:55:57.166Z,6.85
2024-02-02T13:01:01.178Z,6.79
2024-02-02T13:06:05.810Z,6.77
2024-02-02T13:11:27.616Z,6.65
2024-02-02T13:16:34.694Z,6.63
2024-02-02T13:21:43.841Z,6.55
2024-02-02T13:26:52.333Z,6.54
2024-02-02T13:31:56.176Z,6.58
2024-02-02T13:37:00.966Z,6.58
2024-02-02T13:42:06.275Z,6.48
2024-02-02T13:47:15.208Z,6.47
2024-02-02T13:52:18.636Z,6.39
2024-02-02T13:57:23.109Z,6.39
2024-02-02T14:02:27.670Z,6.39
2024-02-02T14:07:31.274Z,6.29
2024-02-02T14:12:38.500Z,6.23
2024-02-02T14:17:42.235Z,6.13
2024-02-02T14:22:46.163Z,6.05
2024-02-02T14:27:49.437Z,6.02
2024-02-02T14:33:04.858Z,5.97
2024-02-02T14:38:16.845Z,5.92
2024-02-02T14:43:20.202Z,5.82
2024-02-02T14:48:23.720Z,5.72
2024-02-02T14:53:27.026Z,5.66
2024-02-02T14:58:30.353Z,5.59
2024-02-02T15:03:33.803Z,5.53
2024-02-02T15:08:39.158Z,5.48
2024-02-02T15:13:42.835Z,5.45
2024-02-02T15:18:47.830Z,5.36
2024-02-02T15:23:51.237Z,5.30
2024-02-02T15:28:54.736Z,5.22
2024-02-02T15:33:58.490Z,5.17
2024-02-02T15:39:18.156Z,5.06
2024-02-02T15:44:26.316Z,4.95
2024-02-02T15:49:30.052Z,4.84
2024-02-02T15:54:35.539Z,4.76
2024-02-02T15:59:40.205Z,4.66
2024-02-02T16:04:43.844Z,4.63
2024-02-02T16:09:47.847Z,4.62
2024-02-02T16:14:51.642Z,4.63
2024-02-02T16:19:56.638Z,4.62
2024-02-02T16:25:00.367Z,4.60
2024-02-02T16:30:05.568Z,4.54
2024-02-02T16:35:09.525Z,4.56
2024-02-02T16:40:14.168Z,4.59
2024-02-02T16:45:18.233Z,4.59
2024-02-02T16:50:22.346Z,4.61
2024-02-02T16:55:25.907Z,4.60
2024-02-02T17:00:30.850Z,4.59
2024-02-02T17:05:34.801Z,4.56
2024-02-02T17:10:38.503Z,4.54
2024-02-02T17:15:42.526Z,4.53
2024-02-02T17:20:46.524Z,4.52
2024-02-02T17:25:50.458Z,4.54
2024-02-02T17:30:55.379Z,4.52
2024-02-02T17:35:59.647Z,4.51
2024-02-02T17:41:04.131Z,4.51
2024-02-02T17:46:09.360Z,4.49
2024-02-02T17:51:21.230Z,4.44
2024-02-02T17:56:25.092Z,4.42
2024-02-02T18:01:28.992Z,4.37
2024-02-02T18:06:33.559Z,4.39
2024-02-02T18:11:37.514Z,4.45
2024-02-02T18:16:40.909Z,4.48
2024-02-02T18:21:44.474Z,4.54
2024-02-02T18:26:47.987Z,4.59
2024-02-02T18:31:51.638Z,4.57
2024-02-02T18:36:55.106Z,4.55
2024-02-02T18:42:05.164Z,4.61
2024-02-02T18:47:08.674Z,4.56
2024-02-02T18:52:13.112Z,4.54
2024-02-02T18:57:18.102Z,4.54
2024-02-02T19:02:21.437Z,4.49
2024-02-02T19:07:26.767Z,4.48
2024-02-02T19:12:30.327Z,4.48
2024-02-02T19:17:33.769Z,4.46
2024-02-02T19:22:37.626Z,4.46
2024-02-02T19:27:41.044Z,4.46
2024-02-02T19:32:44.529Z,4.53
2024-02-02T19:37:47.940Z,4.64
2024-02-02T19:42:51.530Z,4.73
2024-02-02T19:47:56.462Z,4.88
2024-02-02T19:52:59.980Z,4.95
2024-02-02T19:58:03.350Z,4.97
2024-02-02T20:03:06.708Z,4.97
2024-02-02T20:08:10.111Z,4.94
2024-02-02T20:13:13.435Z,4.87
2024-02-02T20:18:17.874Z,4.82
2024-02-02T20:23:21.965Z,4.75
2024-02-02T20:28:25.217Z,4.69
2024-02-02T20:33:29.009Z,4.59
2024-02-02T20:38:32.551Z,4.53
2024-02-02T20:43:36.030Z,4.49
2024-02-02T20:48:39.608Z,4.69
2024-02-02T20:53:43.188Z,4.88
2024-02-02T20:58:47.014Z,5.02
2024-02-02T21:03:50.513Z,5.20
2024-02-02T21:08:55.285Z,5.28
2024-02-02T21:13:58.693Z,5.35
2024-02-02T21:19:05.864Z,5.35
2024-02-02T21:24:09.481Z,5.32
2024-02-02T21:29:13.300Z,5.27
2024-02-02T21:34:17.042Z,5.22
2024-02-02T21:39:20.317Z,5.19
2024-02-02T21:44:24.800Z,5.18
2024-02-02T21:49:28.592Z,5.12
2024-02-02T21:54:32.194Z,5.09
2024-02-02T21:59:39.176Z,5.07
2024-02-02T22:04:43.192Z,5.06
2024-02-02T22:09:47.006Z,5.00
2024-02-02T22:14:50.267Z,4.97
2024-02-02T22:19:54.033Z,4.96
2024-02-02T22:24:57.574Z,4.91
2024-02-02T22:30:00.933Z,4.89
2024-02-02T22:35:05.140Z,4.90
2024-02-02T22:40:09.936Z,4.88
2024-02-02T22:45:13.633Z,4.88
2024-02-02T22:50:17.496Z,4.91
2024-02-02T22:55:21.090Z,4.92
2024-02-02T23:00:24.590Z,4.93
2024-02-02T23:05:28.277Z,4.91
2024-02-02T23:10:31.731Z,4.88
2024-02-02T23:15:36.722Z,4.86
2024-02-02T23:20:40.304Z,4.88
2024-02-02T23:25:44.969Z,4.94
2024-02-02T23:30:49.637Z,5.01
2024-02-02T23:35:53.404Z,5.05
2024-02-02T23:40:57.148Z,5.08
2024-02-02T23:46:00.782Z,5.10
2024-02-02T23:51:07.775Z,5.18
2024-02-02T23:56:11.294Z,5.23
